Terminal Aerodrome Forecast
Issued by NWS Quad Cities IA IL

Home | Current Version | Previous Version | Text Only | Print | Product List | Glossary On
Versions: 1 2 3 4 5 6 7 8 9 10 11 12 13 14
000
FTUS43 KDVN 180500
TAFDBQ
TAF
KDBQ 180520Z 1806/1906 32010KT P6SM BKN040
     FM181200 34008KT P6SM BKN025
     FM182000 34006KT P6SM SCT060=

USA.gov is the U.S. government's official web portal to all federal, state and local government web resources and services.